sensor_id;sensor_type;location;lat;lon;timestamp;pressure;altitude;pressure_sealevel;temperature;humidity
33949;BME280;20229;49.856;19.030;2024-03-08T00:03:25;102186.13;;;2.31;95.92
33949;BME280;20229;49.856;19.030;2024-03-08T00:08:39;102182.52;;;2.29;95.90
33949;BME280;20229;49.856;19.030;2024-03-08T00:13:52;102176.23;;;2.28;95.97
33949;BME280;20229;49.856;19.030;2024-03-08T00:19:07;102176.24;;;2.24;95.95
33949;BME280;20229;49.856;19.030;2024-03-08T00:24:20;102169.05;;;2.24;96.23
33949;BME280;20229;49.856;19.030;2024-03-08T00:29:39;102172.66;;;2.23;96.43
33949;BME280;20229;49.856;19.030;2024-03-08T00:34:56;102163.66;;;2.24;96.29
33949;BME280;20229;49.856;19.030;2024-03-08T00:40:11;102156.48;;;2.23;96.55
33949;BME280;20229;49.856;19.030;2024-03-08T00:45:25;102162.77;;;2.21;96.22
33949;BME280;20229;49.856;19.030;2024-03-08T00:50:40;102155.56;;;2.15;96.26
33949;BME280;20229;49.856;19.030;2024-03-08T00:55:55;102143.00;;;2.14;96.66
33949;BME280;20229;49.856;19.030;2024-03-08T01:01:09;102143.91;;;2.13;96.66
33949;BME280;20229;49.856;19.030;2024-03-08T01:06:23;102139.38;;;2.12;96.65
33949;BME280;20229;49.856;19.030;2024-03-08T01:11:38;102139.38;;;2.12;96.71
33949;BME280;20229;49.856;19.030;2024-03-08T01:16:52;102142.98;;;2.11;96.91
33949;BME280;20229;49.856;19.030;2024-03-08T01:22:08;102126.84;;;2.06;96.64
33949;BME280;20229;49.856;19.030;2024-03-08T01:27:25;102123.23;;;2.07;96.89
33949;BME280;20229;49.856;19.030;2024-03-08T01:32:39;102125.02;;;2.04;96.97
33949;BME280;20229;49.856;19.030;2024-03-08T01:37:53;102127.70;;;2.01;97.24
33949;BME280;20229;49.856;19.030;2024-03-08T01:49:02;102116.91;;;1.85;97.30
33949;BME280;20229;49.856;19.030;2024-03-08T01:54:19;102108.83;;;1.82;97.28
33949;BME280;20229;49.856;19.030;2024-03-08T01:59:33;102103.43;;;1.75;97.45
33949;BME280;20229;49.856;19.030;2024-03-08T02:04:48;102110.62;;;1.74;97.75
33949;BME280;20229;49.856;19.030;2024-03-08T02:10:02;102098.91;;;1.66;97.84
33949;BME280;20229;49.856;19.030;2024-03-08T02:15:16;102100.71;;;1.64;97.63
33949;BME280;20229;49.856;19.030;2024-03-08T02:20:30;102096.20;;;1.54;98.44
33949;BME280;20229;49.856;19.030;2024-03-08T02:25:44;102087.22;;;1.55;98.42
33949;BME280;20229;49.856;19.030;2024-03-08T02:30:58;102082.73;;;1.51;98.90
33949;BME280;20229;49.856;19.030;2024-03-08T02:36:11;102081.84;;;1.50;98.71
33949;BME280;20229;49.856;19.030;2024-03-08T02:41:27;102089.92;;;1.49;99.12
33949;BME280;20229;49.856;19.030;2024-03-08T02:46:40;102084.52;;;1.52;99.10
33949;BME280;20229;49.856;19.030;2024-03-08T02:51:54;102084.52;;;1.52;98.75
33949;BME280;20229;49.856;19.030;2024-03-08T02:57:13;102085.44;;;1.54;99.04
33949;BME280;20229;49.856;19.030;2024-03-08T03:02:28;102083.63;;;1.50;99.01
33949;BME280;20229;49.856;19.030;2024-03-08T03:07:42;102087.20;;;1.47;99.12
33949;BME280;20229;49.856;19.030;2024-03-08T03:12:56;102080.88;;;1.37;99.60
33949;BME280;20229;49.856;19.030;2024-03-08T03:18:10;102084.48;;;1.36;99.56
33949;BME280;20229;49.856;19.030;2024-03-08T03:23:25;102079.12;;;1.35;99.26
33949;BME280;20229;49.856;19.030;2024-03-08T03:28:39;102079.09;;;1.36;99.48
33949;BME280;20229;49.856;19.030;2024-03-08T03:33:53;102080.90;;;1.36;99.08
33949;BME280;20229;49.856;19.030;2024-03-08T03:39:08;102075.50;;;1.28;99.40
33949;BME280;20229;49.856;19.030;2024-03-08T03:44:29;102079.05;;;1.27;99.32
33949;BME280;20229;49.856;19.030;2024-03-08T03:49:43;102077.27;;;1.25;99.48
33949;BME280;20229;49.856;19.030;2024-03-08T03:54:58;102087.13;;;1.26;99.62
33949;BME280;20229;49.856;19.030;2024-03-08T04:00:13;102079.08;;;1.33;99.52
33949;BME280;20229;49.856;19.030;2024-03-08T04:05:27;102072.84;;;1.34;99.35
33949;BME280;20229;49.856;19.030;2024-03-08T04:10:42;102077.32;;;1.38;99.43
33949;BME280;20229;49.856;19.030;2024-03-08T04:15:57;102070.13;;;1.37;99.08
33949;BME280;20229;49.856;19.030;2024-03-08T04:21:11;102072.84;;;1.43;99.08
33949;BME280;20229;49.856;19.030;2024-03-08T04:26:25;102070.15;;;1.43;98.77
33949;BME280;20229;49.856;19.030;2024-03-08T04:31:39;102065.66;;;1.44;98.43
33949;BME280;20229;49.856;19.030;2024-03-08T04:36:54;102062.99;;;1.46;98.41
33949;BME280;20229;49.856;19.030;2024-03-08T04:42:09;102069.26;;;1.48;98.30
33949;BME280;20229;49.856;19.030;2024-03-08T04:47:24;102071.06;;;1.47;98.50
33949;BME280;20229;49.856;19.030;2024-03-08T04:52:38;102061.20;;;1.51;98.34
33949;BME280;20229;49.856;19.030;2024-03-08T04:57:52;102074.66;;;1.51;97.99
33949;BME280;20229;49.856;19.030;2024-03-08T05:03:07;102067.46;;;1.48;98.02
33949;BME280;20229;49.856;19.030;2024-03-08T05:08:22;102071.97;;;1.51;97.87
33949;BME280;20229;49.856;19.030;2024-03-08T05:13:35;102082.74;;;1.54;97.57
33949;BME280;20229;49.856;19.030;2024-03-08T05:18:51;102073.76;;;1.52;97.70
33949;BME280;20229;49.856;19.030;2024-03-08T05:24:05;102077.36;;;1.58;97.58
33949;BME280;20229;49.856;19.030;2024-03-08T05:29:19;102073.79;;;1.61;97.46
33949;BME280;20229;49.856;19.030;2024-03-08T05:34:33;102078.27;;;1.57;97.26
33949;BME280;20229;49.856;19.030;2024-03-08T05:39:47;102077.38;;;1.60;97.44
33949;BME280;20229;49.856;19.030;2024-03-08T05:45:05;102082.77;;;1.63;97.29
33949;BME280;20229;49.856;19.030;2024-03-08T05:50:24;102089.95;;;1.64;96.87
33949;BME280;20229;49.856;19.030;2024-03-08T05:55:38;102085.46;;;1.69;97.15
33949;BME280;20229;49.856;19.030;2024-03-08T06:00:54;102101.63;;;1.75;96.42
33949;BME280;20229;49.856;19.030;2024-03-08T06:06:09;102089.97;;;1.79;96.59
33949;BME280;20229;49.856;19.030;2024-03-08T06:11:23;102095.38;;;1.85;95.73
33949;BME280;20229;49.856;19.030;2024-03-08T06:16:36;102099.88;;;1.93;95.84
33949;BME280;20229;49.856;19.030;2024-03-08T06:21:52;102100.79;;;1.95;95.06
33949;BME280;20229;49.856;19.030;2024-03-08T06:27:06;102099.00;;;2.06;94.94
33949;BME280;20229;49.856;19.030;2024-03-08T06:32:19;102089.12;;;2.14;95.07
33949;BME280;20229;49.856;19.030;2024-03-08T06:37:34;102098.98;;;2.18;94.17
33949;BME280;20229;49.856;19.030;2024-03-08T06:42:49;102087.32;;;2.21;93.41
33949;BME280;20229;49.856;19.030;2024-03-08T06:48:07;102095.39;;;2.33;94.17
33949;BME280;20229;49.856;19.030;2024-03-08T06:53:23;102095.42;;;2.41;92.24
33949;BME280;20229;49.856;19.030;2024-03-08T06:58:38;102091.78;;;2.51;91.82
33949;BME280;20229;49.856;19.030;2024-03-08T07:03:53;102082.79;;;2.61;92.35
33949;BME280;20229;49.856;19.030;2024-03-08T07:09:12;102086.39;;;2.69;90.67
33949;BME280;20229;49.856;19.030;2024-03-08T07:14:26;102094.44;;;2.81;91.46
33949;BME280;20229;49.856;19.030;2024-03-08T07:19:40;102089.00;;;2.98;90.29
33949;BME280;20229;49.856;19.030;2024-03-08T07:24:54;102085.37;;;3.15;89.01
33949;BME280;20229;49.856;19.030;2024-03-08T07:30:23;102082.55;;;3.38;88.78
33949;BME280;20229;49.856;19.030;2024-03-08T07:35:50;102073.48;;;3.49;87.93
33949;BME280;20229;49.856;19.030;2024-03-08T07:41:04;102075.14;;;3.73;87.04
33949;BME280;20229;49.856;19.030;2024-03-08T07:46:17;102078.65;;;3.88;86.30
33949;BME280;20229;49.856;19.030;2024-03-08T07:51:32;102078.45;;;4.15;84.37
33949;BME280;20229;49.856;19.030;2024-03-08T07:56:48;102085.59;;;4.22;85.42
33949;BME280;20229;49.856;19.030;2024-03-08T08:02:02;102081.77;;;4.48;83.14
33949;BME280;20229;49.856;19.030;2024-03-08T08:07:17;102087.97;;;4.59;82.13
33949;BME280;20229;49.856;19.030;2024-03-08T08:12:32;102074.19;;;4.84;79.90
33949;BME280;20229;49.856;19.030;2024-03-08T08:17:47;102076.77;;;4.94;79.20
33949;BME280;20229;49.856;19.030;2024-03-08T08:23:01;102081.20;;;5.03;78.59
33949;BME280;20229;49.856;19.030;2024-03-08T08:28:16;102079.32;;;5.10;81.18
33949;BME280;20229;49.856;19.030;2024-03-08T08:33:33;102087.41;;;5.11;81.12
33949;BME280;20229;49.856;19.030;2024-03-08T08:38:50;102038.16;;;4.82;80.81
33949;BME280;20229;49.856;19.030;2024-03-08T08:44:04;102088.38;;;5.07;79.71
33949;BME280;20229;49.856;19.030;2024-03-08T08:49:23;102098.28;;;5.08;78.86
33949;BME280;20229;49.856;19.030;2024-03-08T08:54:39;102086.52;;;5.11;82.00
33949;BME280;20229;49.856;19.030;2024-03-08T08:59:53;102091.08;;;5.07;78.09
33949;BME280;20229;49.856;19.030;2024-03-08T09:05:07;102083.71;;;5.18;78.85
33949;BME280;20229;49.856;19.030;2024-03-08T09:10:22;102078.09;;;5.35;79.41
33949;BME280;20229;49.856;19.030;2024-03-08T09:15:38;102067.16;;;5.44;79.23
33949;BME280;20229;49.856;19.030;2024-03-08T09:20:55;102076.99;;;5.51;79.49
33949;BME280;20229;49.856;19.030;2024-03-08T09:26:09;102077.72;;;5.63;78.41
33949;BME280;20229;49.856;19.030;2024-03-08T09:31:27;102077.84;;;5.54;76.29
33949;BME280;20229;49.856;19.030;2024-03-08T09:36:41;102071.47;;;5.59;79.09
33949;BME280;20229;49.856;19.030;2024-03-08T09:41:55;102082.02;;;5.78;76.94
33949;BME280;20229;49.856;19.030;2024-03-08T09:51:05;102075.56;;;5.88;76.21
33949;BME280;20229;49.856;19.030;2024-03-08T09:56:35;102069.11;;;5.98;78.78
33949;BME280;20229;49.856;19.030;2024-03-08T10:01:49;102063.34;;;6.19;77.66
33949;BME280;20229;49.856;19.030;2024-03-08T10:07:05;102072.88;;;6.43;75.62
33949;BME280;20229;49.856;19.030;2024-03-08T10:12:20;102073.48;;;6.59;76.10
33949;BME280;20229;49.856;19.030;2024-03-08T10:17:35;102079.24;;;6.90;73.89
33949;BME280;20229;49.856;19.030;2024-03-08T10:22:49;102060.58;;;7.18;74.22
33949;BME280;20229;49.856;19.030;2024-03-08T10:28:04;102071.32;;;7.25;72.33
33949;BME280;20229;49.856;19.030;2024-03-08T10:33:19;102058.41;;;7.36;73.59
33949;BME280;20229;49.856;19.030;2024-03-08T10:38:38;102058.11;;;7.50;73.69
33949;BME280;20229;49.856;19.030;2024-03-08T10:44:16;102056.87;;;7.63;70.24
33949;BME280;20229;49.856;19.030;2024-03-08T10:49:43;102056.80;;;7.66;69.68
33949;BME280;20229;49.856;19.030;2024-03-08T10:54:59;102054.84;;;7.73;69.89
33949;BME280;20229;49.856;19.030;2024-03-08T11:00:15;102048.41;;;7.77;72.88
33949;BME280;20229;49.856;19.030;2024-03-08T11:05:38;102046.55;;;7.79;69.50
33949;BME280;20229;49.856;19.030;2024-03-08T11:10:55;102044.41;;;7.54;70.58
33949;BME280;20229;49.856;19.030;2024-03-08T11:21:38;102030.81;;;7.14;72.05
33949;BME280;20229;49.856;19.030;2024-03-08T11:26:59;102026.03;;;7.25;73.01
33949;BME280;20229;49.856;19.030;2024-03-08T11:32:17;102013.34;;;7.26;71.44
33949;BME280;20229;49.856;19.030;2024-03-08T11:37:33;102016.88;;;7.29;72.62
33949;BME280;20229;49.856;19.030;2024-03-08T11:42:49;102012.29;;;7.33;72.09
33949;BME280;20229;49.856;19.030;2024-03-08T11:48:05;101998.81;;;7.28;72.14
33949;BME280;20229;49.856;19.030;2024-03-08T11:53:19;101998.77;;;7.30;72.71
33949;BME280;20229;49.856;19.030;2024-03-08T11:58:33;101999.78;;;7.24;73.50
33949;BME280;20229;49.856;19.030;2024-03-08T12:03:56;101991.95;;;7.10;72.42
33949;BME280;20229;49.856;19.030;2024-03-08T12:09:13;101996.57;;;7.05;72.38
33949;BME280;20229;49.856;19.030;2024-03-08T12:14:28;101984.49;;;7.20;73.35
33949;BME280;20229;49.856;19.030;2024-03-08T12:19:46;101984.55;;;7.17;72.49
33949;BME280;20229;49.856;19.030;2024-03-08T12:25:06;101979.03;;;7.22;74.00
33949;BME280;20229;49.856;19.030;2024-03-08T12:30:26;101980.64;;;7.30;72.88
33949;BME280;20229;49.856;19.030;2024-03-08T12:35:55;101966.28;;;7.25;74.92
33949;BME280;20229;49.856;19.030;2024-03-08T12:41:39;101960.55;;;7.37;73.43
33949;BME280;20229;49.856;19.030;2024-03-08T12:46:54;101946.13;;;7.35;73.35
33949;BME280;20229;49.856;19.030;2024-03-08T12:52:10;101940.77;;;7.32;74.06
33949;BME280;20229;49.856;19.030;2024-03-08T12:57:24;101941.77;;;7.28;72.70
33949;BME280;20229;49.856;19.030;2024-03-08T13:02:41;101943.73;;;7.22;72.61
33949;BME280;20229;49.856;19.030;2024-03-08T13:07:56;101936.48;;;7.21;73.27
33949;BME280;20229;49.856;19.030;2024-03-08T13:13:11;101931.05;;;7.21;74.33
33949;BME280;20229;49.856;19.030;2024-03-08T13:18:26;101925.42;;;7.30;74.28
33949;BME280;20229;49.856;19.030;2024-03-08T13:23:42;101926.61;;;7.18;73.63
33949;BME280;20229;49.856;19.030;2024-03-08T13:29:03;101915.74;;;7.18;74.14
33949;BME280;20229;49.856;19.030;2024-03-08T13:34:20;101911.27;;;7.15;74.53
33949;BME280;20229;49.856;19.030;2024-03-08T13:39:44;101911.09;;;7.23;74.19
33949;BME280;20229;49.856;19.030;2024-03-08T13:44:58;101909.20;;;7.27;74.39
33949;BME280;20229;49.856;19.030;2024-03-08T13:50:12;101902.05;;;7.23;73.51
33949;BME280;20229;49.856;19.030;2024-03-08T13:55:26;101899.27;;;7.26;75.75
33949;BME280;20229;49.856;19.030;2024-03-08T14:00:40;101900.02;;;7.32;75.18
33949;BME280;20229;49.856;19.030;2024-03-08T14:05:59;101897.45;;;7.26;75.71
33949;BME280;20229;49.856;19.030;2024-03-08T14:11:14;101898.34;;;7.27;75.01
33949;BME280;20229;49.856;19.030;2024-03-08T14:16:28;101897.74;;;7.14;74.29
33949;BME280;20229;49.856;19.030;2024-03-08T14:21:45;101893.34;;;7.08;75.61
33949;BME280;20229;49.856;19.030;2024-03-08T14:27:01;101885.08;;;7.13;75.77
33949;BME280;20229;49.856;19.030;2024-03-08T14:32:17;101893.03;;;7.21;76.81
33949;BME280;20229;49.856;19.030;2024-03-08T14:37:36;101887.84;;;7.11;75.51
33949;BME280;20229;49.856;19.030;2024-03-08T14:42:50;101875.33;;;7.04;76.51
33949;BME280;20229;49.856;19.030;2024-03-08T14:48:07;101876.41;;;6.97;76.28
33949;BME280;20229;49.856;19.030;2024-03-08T14:53:21;101873.75;;;6.94;76.60
33949;BME280;20229;49.856;19.030;2024-03-08T14:58:35;101870.39;;;6.83;76.28
33949;BME280;20229;49.856;19.030;2024-03-08T15:03:51;101863.38;;;6.73;76.03
33949;BME280;20229;49.856;19.030;2024-03-08T15:09:06;101853.71;;;6.59;76.62
33949;BME280;20229;49.856;19.030;2024-03-08T15:14:30;101859.47;;;6.44;76.91
33949;BME280;20229;49.856;19.030;2024-03-08T15:19:50;101858.71;;;6.36;77.42
33949;BME280;20229;49.856;19.030;2024-03-08T15:25:08;101837.23;;;6.27;78.09
33949;BME280;20229;49.856;19.030;2024-03-08T15:30:27;101845.47;;;6.22;78.93
33949;BME280;20229;49.856;19.030;2024-03-08T15:35:47;101846.59;;;6.10;78.97
33949;BME280;20229;49.856;19.030;2024-03-08T15:41:09;101852.33;;;5.95;79.71
33949;BME280;20229;49.856;19.030;2024-03-08T15:46:25;101854.36;;;5.81;79.78
33949;BME280;20229;49.856;19.030;2024-03-08T15:51:39;101848.35;;;5.62;80.39
33949;BME280;20229;49.856;19.030;2024-03-08T15:56:54;101851.21;;;5.54;81.02
33949;BME280;20229;49.856;19.030;2024-03-08T16:02:08;101855.06;;;5.41;81.61
33949;BME280;20229;49.856;19.030;2024-03-08T16:07:22;101847.09;;;5.32;82.20
33949;BME280;20229;49.856;19.030;2024-03-08T16:12:36;101844.64;;;5.16;82.64
33949;BME280;20229;49.856;19.030;2024-03-08T16:17:52;101856.57;;;5.01;83.31
33949;BME280;20229;49.856;19.030;2024-03-08T16:23:06;101863.07;;;4.90;83.01
33949;BME280;20229;49.856;19.030;2024-03-08T16:28:20;101854.23;;;4.78;83.77
33949;BME280;20229;49.856;19.030;2024-03-08T16:33:46;101849.00;;;4.65;84.15
33949;BME280;20229;49.856;19.030;2024-03-08T16:39:06;101844.69;;;4.50;85.76
33949;BME280;20229;49.856;19.030;2024-03-08T16:44:22;101840.35;;;4.37;85.32
33949;BME280;20229;49.856;19.030;2024-03-08T16:49:42;101841.38;;;4.26;86.02
33949;BME280;20229;49.856;19.030;2024-03-08T16:54:56;101842.43;;;4.13;86.64
33949;BME280;20229;49.856;19.030;2024-03-08T17:00:14;101845.26;;;4.02;86.53
33949;BME280;20229;49.856;19.030;2024-03-08T17:05:33;101846.30;;;3.91;87.01
33949;BME280;20229;49.856;19.030;2024-03-08T17:10:48;101845.52;;;3.78;87.55
33949;BME280;20229;49.856;19.030;2024-03-08T17:16:04;101851.95;;;3.66;87.79
33949;BME280;20229;49.856;19.030;2024-03-08T17:21:21;101850.23;;;3.59;88.59
33949;BME280;20229;49.856;19.030;2024-03-08T17:26:34;101845.84;;;3.46;88.20
33949;BME280;20229;49.856;19.030;2024-03-08T17:31:48;101854.90;;;3.39;88.56
33949;BME280;20229;49.856;19.030;2024-03-08T17:37:03;101849.61;;;3.26;88.72
33949;BME280;20229;49.856;19.030;2024-03-08T17:42:20;101855.05;;;3.20;89.00
33949;BME280;20229;49.856;19.030;2024-03-08T17:47:38;101856.02;;;3.10;89.46
33949;BME280;20229;49.856;19.030;2024-03-08T17:52:53;101848.84;;;3.09;89.93
33949;BME280;20229;49.856;19.030;2024-03-08T17:58:08;101843.43;;;3.12;90.54
33949;BME280;20229;49.856;19.030;2024-03-08T18:03:23;101844.30;;;3.14;91.16
33949;BME280;20229;49.856;19.030;2024-03-08T18:08:41;101845.23;;;3.15;90.91
33949;BME280;20229;49.856;19.030;2024-03-08T18:13:59;101838.02;;;3.15;90.53
33949;BME280;20229;49.856;19.030;2024-03-08T18:19:13;101843.45;;;3.09;90.79
33949;BME280;20229;49.856;19.030;2024-03-08T18:24:32;101838.05;;;3.09;91.38
33949;BME280;20229;49.856;19.030;2024-03-08T18:29:46;101832.66;;;3.09;91.77
33949;BME280;20229;49.856;19.030;2024-03-08T18:35:00;101835.32;;;3.15;92.37
33949;BME280;20229;49.856;19.030;2024-03-08T18:40:16;101820.00;;;3.19;91.37
33949;BME280;20229;49.856;19.030;2024-03-08T18:45:37;101825.38;;;3.20;91.45
33949;BME280;20229;49.856;19.030;2024-03-08T18:50:52;101822.73;;;3.13;91.62
33949;BME280;20229;49.856;19.030;2024-03-08T18:56:07;101822.76;;;3.09;91.57
33949;BME280;20229;49.856;19.030;2024-03-08T19:01:22;101811.13;;;3.00;92.06
33949;BME280;20229;49.856;19.030;2024-03-08T19:06:44;101818.38;;;2.95;92.25
33949;BME280;20229;49.856;19.030;2024-03-08T19:12:04;101812.10;;;2.90;92.53
33949;BME280;20229;49.856;19.030;2024-03-08T19:17:22;101814.83;;;2.88;92.53
33949;BME280;20229;49.856;19.030;2024-03-08T19:22:39;101816.67;;;2.81;92.61
33949;BME280;20229;49.856;19.030;2024-03-08T19:27:59;101815.84;;;2.70;92.66
33949;BME280;20229;49.856;19.030;2024-03-08T19:33:13;101818.66;;;2.55;93.00
33949;BME280;20229;49.856;19.030;2024-03-08T19:38:29;101812.38;;;2.51;93.31
33949;BME280;20229;49.856;19.030;2024-03-08T19:43:45;101807.91;;;2.43;93.62
33949;BME280;20229;49.856;19.030;2024-03-08T19:49:01;101808.86;;;2.37;94.08
33949;BME280;20229;49.856;19.030;2024-03-08T19:54:17;101804.39;;;2.31;94.44
33949;BME280;20229;49.856;19.030;2024-03-08T19:59:31;101805.30;;;2.30;94.81
33949;BME280;20229;49.856;19.030;2024-03-08T20:04:56;101799.90;;;2.29;94.81
33949;BME280;20229;49.856;19.030;2024-03-08T20:10:13;101790.95;;;2.27;95.12
33949;BME280;20229;49.856;19.030;2024-03-08T20:15:28;101796.37;;;2.19;95.30
33949;BME280;20229;49.856;19.030;2024-03-08T20:20:44;101797.30;;;2.07;95.20
33949;BME280;20229;49.856;19.030;2024-03-08T20:26:02;101800.04;;;1.94;95.42
33949;BME280;20229;49.856;19.030;2024-03-08T20:31:24;101798.27;;;1.86;95.62
33949;BME280;20229;49.856;19.030;2024-03-08T20:36:39;101802.80;;;1.75;95.85
33949;BME280;20229;49.856;19.030;2024-03-08T20:41:55;101805.52;;;1.64;95.86
33949;BME280;20229;49.856;19.030;2024-03-08T20:47:09;101787.61;;;1.53;95.86
33949;BME280;20229;49.856;19.030;2024-03-08T20:52:25;101785.82;;;1.44;95.94
33949;BME280;20229;49.856;19.030;2024-03-08T20:57:40;101781.34;;;1.37;95.87
33949;BME280;20229;49.856;19.030;2024-03-08T21:03:03;101776.89;;;1.28;95.80
33949;BME280;20229;49.856;19.030;2024-03-08T21:08:21;101776.88;;;1.16;96.17
33949;BME280;20229;49.856;19.030;2024-03-08T21:13:42;101759.86;;;1.08;96.14
33949;BME280;20229;49.856;19.030;2024-03-08T21:18:56;101768.83;;;1.01;96.49
33949;BME280;20229;49.856;19.030;2024-03-08T21:24:10;101769.72;;;0.98;97.01
33949;BME280;20229;49.856;19.030;2024-03-08T21:29:27;101761.67;;;0.93;97.52
33949;BME280;20229;49.856;19.030;2024-03-08T21:34:42;101758.99;;;0.92;98.96
33949;BME280;20229;49.856;19.030;2024-03-08T21:39:56;101762.57;;;0.89;98.94
33949;BME280;20229;49.856;19.030;2024-03-08T21:45:10;101763.46;;;0.90;99.12
33949;BME280;20229;49.856;19.030;2024-03-08T21:50:28;101758.99;;;0.92;99.19
33949;BME280;20229;49.856;19.030;2024-03-08T21:55:47;101759.89;;;0.95;99.58
33949;BME280;20229;49.856;19.030;2024-03-08T22:01:01;101749.13;;;0.95;100.00
33949;BME280;20229;49.856;19.030;2024-03-08T22:06:15;101745.52;;;0.95;99.81
33949;BME280;20229;49.856;19.030;2024-03-08T22:11:30;101747.34;;;0.88;99.87
33949;BME280;20229;49.856;19.030;2024-03-08T22:16:45;101742.86;;;0.86;99.57
33949;BME280;20229;49.856;19.030;2024-03-08T22:21:59;101734.77;;;0.84;100.00
33949;BME280;20229;49.856;19.030;2024-03-08T22:27:13;101735.66;;;0.85;100.00
33949;BME280;20229;49.856;19.030;2024-03-08T22:32:28;101738.37;;;0.83;100.00
33949;BME280;20229;49.856;19.030;2024-03-08T22:37:46;101729.40;;;0.83;100.00
33949;BME280;20229;49.856;19.030;2024-03-08T22:43:01;101716.85;;;0.77;100.00
33949;BME280;20229;49.856;19.030;2024-03-08T22:48:15;101724.93;;;0.73;100.00
33949;BME280;20229;49.856;19.030;2024-03-08T22:53:28;101715.08;;;0.64;100.00
33949;BME280;20229;49.856;19.030;2024-03-08T22:58:43;101707.88;;;0.60;100.00
33949;BME280;20229;49.856;19.030;2024-03-08T23:03:57;101707.02;;;0.53;100.00
33949;BME280;20229;49.856;19.030;2024-03-08T23:09:12;101713.25;;;0.49;100.00
33949;BME280;20229;49.856;19.030;2024-03-08T23:14:26;101709.66;;;0.42;100.00
33949;BME280;20229;49.856;19.030;2024-03-08T23:19:40;101708.79;;;0.36;100.00
33949;BME280;20229;49.856;19.030;2024-03-08T23:24:57;101711.45;;;0.31;100.00
33949;BME280;20229;49.856;19.030;2024-03-08T23:30:12;101687.29;;;0.30;100.00
33949;BME280;20229;49.856;19.030;2024-03-08T23:35:27;101708.80;;;0.62;100.00
33949;BME280;20229;49.856;19.030;2024-03-08T23:40:41;101700.73;;;0.80;100.00
33949;BME280;20229;49.856;19.030;2024-03-08T23:45:57;101699.83;;;0.90;100.00
33949;BME280;20229;49.856;19.030;2024-03-08T23:51:12;101691.76;;;0.90;100.00
33949;BME280;20229;49.856;19.030;2024-03-08T23:56:27;101707.02;;;0.82;100.00
